Time;durP1;ratioP1;P1;durP2;ratioP2;P2;SDS_P1;SDS_P2;PMS_P1;PMS_P2;Temp;Humidity;BMP_temperature;BMP_pressure;BME280_temperature;BME280_humidity;BME280_pressure;Samples;Min_cycle;Max_cycle;Signal;HPM_P1;HPM_P2
2021/07/12 00:02:17;;;;;;;1.50;1.40;;;19.30;39.40;;;;;;10452617;28;20602;-69
2021/07/12 00:07:20;;;;;;;1.50;1.30;;;19.30;39.80;;;;;;10444510;28;20261;-69
2021/07/12 00:12:23;;;;;;;1.20;1.10;;;19.20;40.30;;;;;;10447955;28;20240;-69
2021/07/12 00:17:27;;;;;;;1.50;1.10;;;19.20;39.60;;;;;;10452096;28;20255;-69
2021/07/12 00:22:31;;;;;;;1.90;1.00;;;19.20;39.80;;;;;;10445321;28;20232;-69
2021/07/12 00:27:34;;;;;;;1.40;1.30;;;19.10;39.60;;;;;;10442920;28;20221;-69
2021/07/12 00:32:39;;;;;;;3.13;1.37;;;19.10;39.60;;;;;;10450177;28;20225;-69
2021/07/12 00:37:43;;;;;;;1.63;1.30;;;19.10;40.00;;;;;;10452618;28;20225;-69
2021/07/12 00:42:47;;;;;;;1.40;1.30;;;19.00;39.70;;;;;;10450093;28;20717;-69
2021/07/12 00:47:53;;;;;;;2.10;1.40;;;19.00;40.50;;;;;;10451241;28;20241;-69
2021/07/12 00:52:57;;;;;;;1.30;1.30;;;18.90;40.00;;;;;;10451782;28;20233;-69
2021/07/12 00:58:02;;;;;;;1.10;1.00;;;18.90;40.00;;;;;;10455674;28;20233;-69
2021/07/12 01:03:08;;;;;;;1.20;1.00;;;18.80;39.90;;;;;;10457199;28;20225;-69
2021/07/12 01:08:11;;;;;;;1.20;1.10;;;18.80;40.00;;;;;;10453091;28;20312;-69
2021/07/12 01:13:27;;;;;;;1.00;1.00;;;18.80;39.80;;;;;;10456124;28;20221;-69
2021/07/12 01:18:38;;;;;;;2.20;1.10;;;18.70;40.10;;;;;;10456420;28;20262;-69
2021/07/12 01:24:04;;;;;;;1.27;1.20;;;18.70;40.10;;;;;;10448381;28;20823;-69
2021/07/12 01:29:17;;;;;;;0.90;0.90;;;18.70;40.00;;;;;;10456671;28;20224;-70
2021/07/12 01:34:30;;;;;;;1.73;1.00;;;18.60;40.10;;;;;;10457447;28;20739;-69
2021/07/12 01:39:39;;;;;;;0.80;0.80;;;18.60;40.00;;;;;;10455787;28;20224;-69
2021/07/12 01:44:51;;;;;;;2.40;1.00;;;18.50;40.00;;;;;;10457699;28;20225;-69
2021/07/12 01:50:00;;;;;;;0.90;0.90;;;18.40;40.00;;;;;;10457432;28;20228;-69
2021/07/12 01:55:07;;;;;;;0.70;0.70;;;18.40;40.00;;;;;;10452542;28;21158;-69
2021/07/12 02:00:12;;;;;;;1.10;1.10;;;18.30;39.90;;;;;;10456392;28;20810;-69
2021/07/12 02:05:20;;;;;;;1.20;1.03;;;18.20;40.00;;;;;;10446092;28;20217;-69
2021/07/12 02:10:28;;;;;;;2.30;1.03;;;18.20;40.70;;;;;;10452026;28;20225;-69
2021/07/12 02:15:31;;;;;;;0.93;0.93;;;18.10;40.60;;;;;;10448534;28;20220;-69
2021/07/12 02:20:38;;;;;;;1.13;1.13;;;18.00;40.30;;;;;;10453802;28;20229;-69
2021/07/12 02:25:42;;;;;;;1.30;1.20;;;17.90;40.60;;;;;;10447252;28;20254;-69
2021/07/12 02:30:46;;;;;;;1.03;1.00;;;17.90;40.50;;;;;;10454787;28;20229;-69
2021/07/12 02:35:53;;;;;;;1.30;1.23;;;17.80;40.40;;;;;;10442680;28;20230;-69
2021/07/12 02:40:56;;;;;;;1.70;1.30;;;17.80;40.80;;;;;;10446927;28;20225;-69
2021/07/12 02:45:59;;;;;;;1.73;1.00;;;17.80;40.40;;;;;;10449626;28;20271;-69
2021/07/12 02:51:08;;;;;;;1.33;1.20;;;17.80;40.50;;;;;;10446529;28;20260;-70
2021/07/12 02:56:11;;;;;;;1.23;1.13;;;17.80;40.50;;;;;;10447409;28;20216;-70
2021/07/12 03:01:15;;;;;;;1.30;1.20;;;17.70;40.20;;;;;;10452359;28;20237;-70
2021/07/12 03:06:22;;;;;;;3.03;1.10;;;17.70;40.50;;;;;;10448911;28;20227;-69
2021/07/12 03:11:31;;;;;;;3.97;1.03;;;17.60;40.60;;;;;;10452886;28;20240;-69
2021/07/12 03:16:35;;;;;;;1.30;1.20;;;17.60;40.60;;;;;;10451339;28;20610;-69
2021/07/12 03:21:42;;;;;;;1.23;1.13;;;17.60;40.40;;;;;;10448539;28;20221;-69
2021/07/12 03:26:47;;;;;;;1.20;1.10;;;17.60;40.60;;;;;;10448726;28;20258;-69
2021/07/12 03:31:51;;;;;;;1.17;1.17;;;17.50;40.50;;;;;;10447141;28;20232;-69
2021/07/12 03:36:57;;;;;;;0.90;0.90;;;17.50;40.50;;;;;;10443813;28;20595;-69
2021/07/12 03:42:00;;;;;;;1.43;1.33;;;17.50;40.80;;;;;;10451210;28;20264;-69
2021/07/12 03:47:04;;;;;;;3.07;1.20;;;17.50;40.60;;;;;;10443621;28;20233;-70
2021/07/12 03:52:09;;;;;;;1.37;1.27;;;17.40;40.20;;;;;;10451321;28;20244;-69
2021/07/12 03:57:12;;;;;;;1.50;1.40;;;17.40;40.60;;;;;;10439124;28;20226;-69
2021/07/12 04:02:15;;;;;;;2.10;1.40;;;17.30;40.30;;;;;;10439985;28;20232;-69
2021/07/12 04:07:20;;;;;;;1.27;1.17;;;17.20;40.40;;;;;;10442167;28;20228;-69
2021/07/12 04:12:24;;;;;;;1.10;1.00;;;17.10;40.90;;;;;;10450640;28;20947;-69
2021/07/12 04:17:27;;;;;;;2.40;1.20;;;17.10;40.80;;;;;;10447196;28;20228;-69
2021/07/12 04:22:32;;;;;;;1.20;1.13;;;17.10;41.00;;;;;;10447061;28;20611;-69
2021/07/12 04:27:35;;;;;;;4.67;1.17;;;17.00;41.30;;;;;;10444327;28;20225;-69
2021/07/12 04:32:38;;;;;;;1.70;1.17;;;17.00;41.30;;;;;;10448616;28;20239;-69
2021/07/12 04:37:43;;;;;;;1.13;1.07;;;17.10;41.30;;;;;;10445452;28;20747;-69
2021/07/12 04:42:46;;;;;;;2.03;1.10;;;17.10;41.80;;;;;;10444522;28;20734;-69
2021/07/12 04:47:49;;;;;;;1.50;1.10;;;17.10;41.70;;;;;;10441223;28;20229;-70
2021/07/12 04:52:54;;;;;;;1.17;0.90;;;17.10;41.90;;;;;;10447006;28;20257;-70
2021/07/12 04:57:58;;;;;;;7.37;1.40;;;17.20;42.50;;;;;;10442218;28;20948;-69
2021/07/12 05:03:04;;;;;;;2.20;1.90;;;17.20;42.10;;;;;;10439716;28;20584;-69
2021/07/12 05:08:09;;;;;;;1.90;1.80;;;17.20;42.60;;;;;;10445462;28;20222;-70
2021/07/12 05:13:12;;;;;;;3.03;2.40;;;17.20;43.10;;;;;;10442607;28;20228;-69
2021/07/12 05:18:17;;;;;;;5.83;2.30;;;17.30;42.90;;;;;;10450627;28;20228;-69
2021/07/12 05:23:22;;;;;;;2.20;2.10;;;17.30;43.10;;;;;;10446580;28;20232;-70
2021/07/12 05:28:25;;;;;;;1.87;1.77;;;17.40;44.00;;;;;;10443691;28;20597;-70
2021/07/12 05:33:28;;;;;;;2.07;1.87;;;17.40;43.60;;;;;;10455869;28;20224;-69
2021/07/12 05:38:34;;;;;;;2.27;2.17;;;17.50;43.90;;;;;;10450595;28;20232;-69
2021/07/12 05:43:38;;;;;;;2.30;2.20;;;17.70;44.70;;;;;;10451087;28;20220;-69
2021/07/12 05:48:41;;;;;;;2.40;2.20;;;17.80;44.30;;;;;;10446244;28;20225;-74
2021/07/12 05:53:45;;;;;;;2.10;2.00;;;17.90;44.70;;;;;;10437689;28;20347;-76
2021/07/12 05:58:48;;;;;;;3.10;2.90;;;18.10;45.00;;;;;;10446950;28;20252;-75
2021/07/12 06:03:51;;;;;;;2.93;2.73;;;18.30;44.80;;;;;;10444947;28;20228;-76
2021/07/12 06:08:56;;;;;;;3.30;3.10;;;18.40;44.80;;;;;;10446845;28;20232;-76
2021/07/12 06:13:59;;;;;;;3.07;2.87;;;18.60;45.60;;;;;;10450373;28;21705;-76
2021/07/12 06:19:03;;;;;;;3.30;3.00;;;18.70;45.10;;;;;;10447257;28;20621;-68
2021/07/12 06:24:07;;;;;;;2.60;2.40;;;18.90;45.30;;;;;;10449532;28;20221;-74
2021/07/12 06:29:10;;;;;;;2.70;2.50;;;19.00;45.80;;;;;;10449964;28;20909;-74
2021/07/12 06:34:13;;;;;;;2.50;2.40;;;19.20;45.60;;;;;;10451409;28;20224;-74
2021/07/12 06:39:18;;;;;;;2.30;2.10;;;19.30;45.70;;;;;;10453763;28;20224;-74
2021/07/12 06:44:21;;;;;;;2.73;2.20;;;19.50;46.20;;;;;;10453453;28;20244;-74
2021/07/12 06:49:25;;;;;;;2.20;2.10;;;19.70;45.90;;;;;;10448644;28;20606;-74
2021/07/12 06:54:29;;;;;;;2.10;2.00;;;19.80;46.00;;;;;;10448953;28;20599;-74
2021/07/12 06:59:33;;;;;;;2.10;2.00;;;20.00;46.30;;;;;;10448139;28;20335;-74
2021/07/12 07:04:36;;;;;;;2.23;2.10;;;20.20;46.00;;;;;;10446896;28;20264;-74
2021/07/12 07:09:40;;;;;;;2.00;1.90;;;20.40;45.90;;;;;;10451820;28;20607;-74
2021/07/12 07:14:43;;;;;;;2.10;2.00;;;20.70;45.90;;;;;;10448171;28;20263;-74
2021/07/12 07:19:47;;;;;;;1.97;1.87;;;20.90;46.60;;;;;;10452874;28;20239;-74
2021/07/12 07:24:52;;;;;;;2.00;1.90;;;21.10;45.70;;;;;;10445856;28;20628;-74
2021/07/12 07:30:14;;;;;;;1.80;1.70;;;21.40;45.90;;;;;;10447035;28;20217;-74
2021/07/12 07:35:18;;;;;;;1.80;1.70;;;21.60;44.80;;;;;;10449615;28;20225;-75
2021/07/12 07:40:22;;;;;;;1.70;1.60;;;21.80;45.00;;;;;;10451120;28;20225;-74
2021/07/12 07:45:27;;;;;;;1.97;1.87;;;22.00;43.70;;;;;;10447256;28;20233;-74
2021/07/12 07:50:32;;;;;;;1.87;1.77;;;22.20;44.30;;;;;;10446534;28;20224;-74
2021/07/12 07:55:37;;;;;;;1.90;1.80;;;22.50;43.90;;;;;;10438469;28;20244;-74
2021/07/12 08:00:41;;;;;;;1.87;1.77;;;22.70;43.60;;;;;;10449434;28;20224;-74
2021/07/12 08:05:44;;;;;;;2.10;1.90;;;22.90;43.60;;;;;;10447543;28;20221;-74
2021/07/12 08:10:48;;;;;;;3.07;1.80;;;23.10;43.40;;;;;;10449992;28;20600;-75
2021/07/12 08:15:52;;;;;;;1.90;1.80;;;23.40;42.60;;;;;;10440137;28;20228;-74
2021/07/12 08:20:55;;;;;;;1.80;1.70;;;23.60;42.60;;;;;;10436997;28;20225;-74
2021/07/12 08:26:00;;;;;;;1.60;1.50;;;23.80;42.30;;;;;;10453736;28;20227;-75
2021/07/12 08:31:03;;;;;;;1.70;1.60;;;24.00;41.70;;;;;;10449190;28;20225;-74
2021/07/12 08:36:07;;;;;;;1.63;1.53;;;24.30;41.70;;;;;;10442675;28;20220;-75
2021/07/12 08:41:11;;;;;;;1.80;1.70;;;24.50;40.60;;;;;;10445584;28;20599;-74
2021/07/12 08:46:15;;;;;;;1.90;1.80;;;24.70;40.60;;;;;;10442711;28;20299;-74
2021/07/12 08:51:18;;;;;;;1.87;1.77;;;24.80;40.70;;;;;;10455058;28;20661;-74
2021/07/12 08:56:23;;;;;;;1.43;1.40;;;24.90;40.80;;;;;;10443722;28;20232;-75
2021/07/12 09:01:27;;;;;;;1.70;1.60;;;25.10;39.20;;;;;;10441819;28;20229;-75
2021/07/12 09:06:34;;;;;;;1.53;1.43;;;25.20;39.90;;;;;;10440253;28;20224;-75
2021/07/12 09:11:40;;;;;;;1.63;1.53;;;25.40;39.70;;;;;;10448477;28;20225;-75
2021/07/12 09:16:44;;;;;;;1.90;1.43;;;25.70;38.60;;;;;;10444862;28;20243;-74
2021/07/12 09:21:51;;;;;;;1.30;1.30;;;25.80;38.20;;;;;;10441509;28;20584;-74
2021/07/12 09:26:58;;;;;;;1.37;1.37;;;26.00;37.90;;;;;;10447078;28;20228;-75
2021/07/12 09:32:05;;;;;;;1.63;1.53;;;26.20;36.90;;;;;;10445830;28;20240;-75
2021/07/12 09:37:12;;;;;;;1.60;1.50;;;26.40;36.90;;;;;;10452496;28;20270;-75
2021/07/12 09:42:18;;;;;;;1.53;1.40;;;26.60;36.60;;;;;;10449792;28;20221;-75
2021/07/12 09:47:27;;;;;;;1.87;1.50;;;26.80;35.60;;;;;;10449878;28;20228;-75
2021/07/12 09:52:39;;;;;;;1.20;1.20;;;26.90;35.80;;;;;;10452291;28;20236;-75
2021/07/12 09:57:43;;;;;;;1.40;1.30;;;27.10;34.60;;;;;;10446183;28;20696;-75
2021/07/12 10:02:51;;;;;;;1.20;1.20;;;27.30;35.10;;;;;;10453778;28;20233;-75
2021/07/12 10:07:56;;;;;;;1.20;1.20;;;27.40;35.10;;;;;;10447522;28;20265;-74
2021/07/12 10:13:01;;;;;;;1.10;1.10;;;27.60;34.70;;;;;;10448766;28;20221;-74
2021/07/12 10:18:05;;;;;;;1.17;1.17;;;27.70;33.60;;;;;;10453593;28;20232;-75
2021/07/12 10:23:09;;;;;;;1.17;1.17;;;27.80;34.00;;;;;;10448643;28;20605;-74
2021/07/12 10:28:13;;;;;;;1.17;1.17;;;28.00;34.40;;;;;;10445088;28;20228;-74
2021/07/12 10:33:19;;;;;;;1.73;1.30;;;28.10;32.80;;;;;;10454943;28;20228;-75
2021/07/12 10:38:29;;;;;;;1.43;1.30;;;28.30;32.10;;;;;;10453147;28;20237;-75
2021/07/12 10:43:46;;;;;;;1.20;1.20;;;28.30;31.40;;;;;;10443704;28;20221;-74
2021/07/12 10:48:49;;;;;;;1.40;1.30;;;28.30;31.70;;;;;;10449249;28;20228;-74
2021/07/12 10:54:01;;;;;;;1.37;1.27;;;28.40;32.90;;;;;;10444341;28;20728;-74
2021/07/12 10:59:06;;;;;;;1.40;1.30;;;28.40;31.10;;;;;;10442453;28;20214;-74
2021/07/12 11:04:32;;;;;;;1.30;1.20;;;28.50;31.80;;;;;;10445946;28;21137;-75
2021/07/12 11:09:52;;;;;;;1.40;1.30;;;28.60;32.00;;;;;;10448757;28;20228;-75
2021/07/12 11:15:15;;;;;;;1.30;1.20;;;28.60;30.60;;;;;;10446611;28;20231;-75
2021/07/12 11:20:38;;;;;;;1.10;1.10;;;28.70;30.70;;;;;;10449412;28;20220;-74
2021/07/12 11:25:43;;;;;;;1.33;1.20;;;28.80;30.70;;;;;;10443254;28;20228;-75
2021/07/12 11:30:48;;;;;;;1.10;1.10;;;28.80;30.70;;;;;;10440003;28;20233;-74
2021/07/12 11:35:55;;;;;;;1.10;1.10;;;28.90;30.70;;;;;;10449288;28;20233;-75
2021/07/12 11:41:06;;;;;;;1.00;1.00;;;28.80;29.40;;;;;;10448601;28;20311;-75
2021/07/12 11:46:14;;;;;;;1.30;1.20;;;28.80;28.70;;;;;;10447637;28;20224;-72
2021/07/12 11:51:21;;;;;;;1.20;1.20;;;28.80;28.60;;;;;;10443641;28;20580;-71
2021/07/12 11:56:25;;;;;;;1.20;1.10;;;28.80;29.90;;;;;;10448494;28;20603;-71
2021/07/12 12:01:29;;;;;;;1.10;1.10;;;28.80;29.80;;;;;;10446638;28;20248;-71
2021/07/12 12:06:33;;;;;;;1.20;1.20;;;28.80;29.70;;;;;;10439072;28;20221;-71
2021/07/12 12:11:36;;;;;;;1.10;1.10;;;28.90;30.00;;;;;;10441735;28;20240;-72
2021/07/12 12:16:40;;;;;;;1.40;1.23;;;28.90;29.70;;;;;;10444764;28;20229;-71
2021/07/12 12:21:44;;;;;;;1.00;1.00;;;29.00;30.10;;;;;;10444837;28;20240;-72
2021/07/12 12:26:50;;;;;;;1.80;1.03;;;29.10;30.00;;;;;;10444482;28;20236;-72
2021/07/12 12:31:55;;;;;;;1.10;1.10;;;29.20;28.10;;;;;;10444059;28;20236;-71
2021/07/12 12:37:00;;;;;;;2.07;1.20;;;29.20;28.20;;;;;;10450051;28;20316;-71
2021/07/12 12:42:05;;;;;;;1.30;1.30;;;29.20;28.90;;;;;;10448362;28;20232;-72
2021/07/12 12:47:10;;;;;;;1.20;1.20;;;29.20;29.10;;;;;;10459953;28;20246;-72
2021/07/12 12:52:15;;;;;;;1.50;1.40;;;29.30;28.10;;;;;;10455788;28;20231;-71
2021/07/12 12:57:28;;;;;;;1.40;1.23;;;29.30;28.40;;;;;;10457441;28;20235;-71
2021/07/12 13:02:38;;;;;;;1.53;1.43;;;29.30;27.70;;;;;;10460821;28;20251;-72
2021/07/12 13:07:48;;;;;;;2.37;1.30;;;29.30;28.00;;;;;;10457935;28;20228;-71
2021/07/12 13:12:53;;;;;;;1.30;1.30;;;29.30;28.10;;;;;;10454991;28;20228;-71
2021/07/12 13:18:03;;;;;;;1.20;1.20;;;29.30;28.40;;;;;;10452429;28;20233;-71
2021/07/12 13:23:07;;;;;;;1.20;1.20;;;29.40;28.00;;;;;;10459411;28;20232;-72
2021/07/12 13:28:12;;;;;;;1.40;1.30;;;29.50;28.40;;;;;;10455420;28;20224;-73
2021/07/12 13:33:18;;;;;;;1.30;1.20;;;29.50;27.90;;;;;;10457027;28;20231;-72
2021/07/12 13:38:22;;;;;;;1.40;1.30;;;29.60;27.60;;;;;;10455438;28;20859;-73
2021/07/12 13:43:25;;;;;;;1.40;1.30;;;29.70;28.50;;;;;;10454463;28;20716;-71
2021/07/12 13:48:30;;;;;;;1.30;1.20;;;29.80;27.90;;;;;;10454976;28;20701;-72
2021/07/12 13:53:35;;;;;;;1.40;1.30;;;29.80;27.00;;;;;;10445502;28;20220;-72
2021/07/12 13:58:38;;;;;;;1.20;1.20;;;29.90;27.50;;;;;;10442263;28;20225;-73
2021/07/12 14:03:46;;;;;;;1.13;1.13;;;29.90;27.20;;;;;;10445594;28;20236;-72
2021/07/12 14:08:50;;;;;;;1.30;1.30;;;30.00;26.60;;;;;;10449753;28;20233;-71
2021/07/12 14:13:53;;;;;;;1.40;1.30;;;30.00;26.40;;;;;;10447751;28;20248;-73
2021/07/12 14:18:57;;;;;;;1.50;1.40;;;30.00;26.40;;;;;;10444432;28;20282;-72
2021/07/12 14:24:01;;;;;;;1.20;1.20;;;30.10;26.30;;;;;;10443311;28;20634;-71
2021/07/12 14:29:05;;;;;;;1.30;1.30;;;30.10;26.50;;;;;;10450423;28;20225;-72
2021/07/12 14:34:10;;;;;;;1.60;1.50;;;30.20;26.40;;;;;;10448301;28;20250;-72
2021/07/12 14:39:13;;;;;;;1.40;1.40;;;30.20;26.00;;;;;;10451538;28;20233;-71
2021/07/12 14:44:17;;;;;;;1.30;1.30;;;30.20;26.40;;;;;;10443740;28;20224;-72
2021/07/12 14:49:21;;;;;;;1.50;1.40;;;30.30;26.40;;;;;;10442968;28;20221;-72
2021/07/12 14:54:25;;;;;;;1.40;1.40;;;30.30;25.70;;;;;;10449594;28;20236;-71
2021/07/12 14:59:28;;;;;;;1.60;1.50;;;30.30;25.90;;;;;;10452860;28;20413;-72
2021/07/12 15:04:33;;;;;;;1.70;1.60;;;30.30;25.80;;;;;;10444516;28;20225;-72
2021/07/12 15:09:36;;;;;;;2.07;1.80;;;30.40;25.10;;;;;;10454168;28;20225;-72
2021/07/12 15:14:40;;;;;;;1.73;1.63;;;30.40;25.40;;;;;;10441690;28;20738;-72
2021/07/12 15:19:45;;;;;;;1.73;1.63;;;30.50;25.20;;;;;;10449211;28;20228;-71
2021/07/12 15:24:48;;;;;;;1.80;1.70;;;30.50;24.50;;;;;;10452042;28;20231;-73
2021/07/12 15:29:51;;;;;;;1.50;1.50;;;30.40;24.60;;;;;;10443285;28;20229;-71
2021/07/12 15:34:57;;;;;;;1.90;1.80;;;30.40;24.80;;;;;;10446933;28;20225;-72
2021/07/12 15:40:01;;;;;;;2.00;1.90;;;30.40;24.60;;;;;;10445573;28;20236;-72
2021/07/12 15:45:05;;;;;;;1.90;1.80;;;30.50;25.00;;;;;;10447334;28;20225;-72
2021/07/12 15:50:12;;;;;;;2.10;2.00;;;30.50;24.90;;;;;;10451860;28;20222;-72
2021/07/12 15:55:15;;;;;;;2.10;2.00;;;30.60;24.50;;;;;;10446221;28;20220;-73
2021/07/12 16:00:19;;;;;;;2.10;2.00;;;30.60;24.90;;;;;;10449639;28;20228;-70
2021/07/12 16:05:24;;;;;;;2.50;2.30;;;30.60;25.00;;;;;;10448982;28;20229;-69
2021/07/12 16:10:27;;;;;;;2.13;2.03;;;30.70;24.50;;;;;;10451036;28;20228;-72
2021/07/12 16:15:30;;;;;;;2.10;2.00;;;30.70;24.80;;;;;;10447154;28;20248;-72
2021/07/12 16:20:35;;;;;;;2.37;2.27;;;30.70;24.90;;;;;;10446061;28;20232;-72
2021/07/12 16:25:38;;;;;;;9.50;8.67;;;30.70;24.30;;;;;;10450772;28;20224;-72
2021/07/12 16:30:42;;;;;;;6.77;6.17;;;30.80;24.70;;;;;;10445958;28;20736;-72
2021/07/12 16:35:47;;;;;;;3.53;3.23;;;30.80;24.70;;;;;;10447544;28;20258;-72
2021/07/12 16:40:51;;;;;;;2.93;2.73;;;30.80;24.10;;;;;;10443509;28;20231;-72
2021/07/12 16:45:55;;;;;;;2.23;2.13;;;30.80;24.60;;;;;;10441755;28;20279;-72
2021/07/12 16:50:59;;;;;;;2.87;2.67;;;30.80;24.60;;;;;;10444654;28;20288;-72
2021/07/12 16:56:03;;;;;;;3.00;2.80;;;30.90;24.50;;;;;;10443637;28;20583;-72
2021/07/12 17:01:06;;;;;;;2.77;2.57;;;30.90;24.40;;;;;;10445504;28;20224;-72
2021/07/12 17:06:12;;;;;;;2.90;2.70;;;30.90;24.20;;;;;;10447579;28;20236;-69
2021/07/12 17:11:16;;;;;;;2.80;2.60;;;30.90;24.10;;;;;;10445779;28;20228;-69
2021/07/12 17:16:19;;;;;;;2.70;2.50;;;30.80;24.30;;;;;;10446044;28;20220;-69
2021/07/12 17:21:24;;;;;;;2.40;2.30;;;30.80;24.30;;;;;;10448782;28;20228;-69
2021/07/12 17:26:27;;;;;;;2.80;2.60;;;30.70;24.10;;;;;;10443594;28;20221;-69
2021/07/12 17:31:30;;;;;;;2.33;2.23;;;30.70;24.30;;;;;;10458111;28;20701;-69
2021/07/12 17:36:35;;;;;;;2.70;2.50;;;30.60;24.20;;;;;;10457052;28;20717;-69
2021/07/12 17:41:39;;;;;;;2.40;2.30;;;30.60;24.20;;;;;;10453795;28;20225;-69
2021/07/12 17:46:43;;;;;;;2.53;2.40;;;30.50;24.60;;;;;;10450992;28;21285;-69
2021/07/12 17:51:49;;;;;;;2.27;2.17;;;30.50;24.60;;;;;;10449927;28;20261;-69
2021/07/12 17:56:53;;;;;;;2.33;2.17;;;30.40;24.40;;;;;;10456936;28;20224;-69
2021/07/12 18:01:56;;;;;;;2.40;2.30;;;30.40;24.80;;;;;;10452597;28;20235;-69
2021/07/12 18:07:01;;;;;;;2.83;2.63;;;30.40;25.60;;;;;;10453416;28;20721;-69
2021/07/12 18:12:05;;;;;;;2.70;2.50;;;30.30;25.60;;;;;;10435578;28;20229;-69
2021/07/12 18:17:09;;;;;;;2.70;2.50;;;30.20;25.70;;;;;;10453209;28;20232;-70
2021/07/12 18:22:14;;;;;;;2.70;2.50;;;30.00;25.70;;;;;;10457217;28;20236;-69
2021/07/12 18:27:17;;;;;;;2.50;2.30;;;29.90;26.00;;;;;;10450260;28;20225;-69
2021/07/12 18:32:20;;;;;;;2.70;2.50;;;29.70;26.00;;;;;;10451961;28;20229;-67
2021/07/12 18:37:25;;;;;;;2.73;2.53;;;29.60;26.30;;;;;;10443495;28;20224;-67
2021/07/12 18:42:28;;;;;;;2.87;2.57;;;29.40;26.60;;;;;;10447381;28;20232;-66
2021/07/12 18:47:31;;;;;;;2.93;2.73;;;29.30;26.70;;;;;;10428741;28;20225;-67
2021/07/12 18:52:36;;;;;;;2.77;2.53;;;29.10;26.80;;;;;;10438052;28;20229;-67
2021/07/12 18:57:39;;;;;;;3.23;3.00;;;29.00;27.30;;;;;;10433020;28;20229;-68
2021/07/12 19:02:42;;;;;;;3.13;2.83;;;28.90;27.30;;;;;;10432342;28;20229;-67
2021/07/12 19:07:47;;;;;;;2.90;2.70;;;28.70;27.60;;;;;;10431803;28;20229;-68
2021/07/12 19:12:52;;;;;;;3.10;2.83;;;28.60;28.00;;;;;;10426495;28;20232;-68
2021/07/12 19:17:56;;;;;;;4.50;2.90;;;28.50;28.00;;;;;;10438329;28;20759;-69
2021/07/12 19:23:00;;;;;;;3.23;2.60;;;28.30;27.90;;;;;;10434742;28;20747;-67
2021/07/12 19:28:06;;;;;;;2.53;2.33;;;28.20;28.30;;;;;;10438204;28;20217;-67
2021/07/12 19:33:09;;;;;;;3.00;2.60;;;28.10;28.20;;;;;;10420485;28;20246;-67
2021/07/12 19:38:15;;;;;;;2.73;2.53;;;28.00;28.10;;;;;;10420652;28;20222;-68
2021/07/12 19:43:19;;;;;;;3.07;2.43;;;28.00;28.50;;;;;;10432039;28;20697;-67
2021/07/12 19:48:23;;;;;;;2.60;2.40;;;27.90;28.40;;;;;;10426150;28;20574;-67
2021/07/12 19:53:27;;;;;;;3.00;2.80;;;27.80;28.60;;;;;;10421688;28;20325;-72
2021/07/12 19:58:31;;;;;;;4.97;2.50;;;27.70;29.00;;;;;;10433090;28;20237;-73
2021/07/12 20:03:34;;;;;;;2.73;2.30;;;27.60;28.90;;;;;;10424993;28;20229;-73
2021/07/12 20:08:39;;;;;;;2.60;2.40;;;27.50;29.10;;;;;;10431075;28;20220;-73
2021/07/12 20:13:42;;;;;;;2.20;2.10;;;27.40;29.80;;;;;;10426866;28;20248;-74
2021/07/12 20:18:46;;;;;;;2.67;2.43;;;27.30;29.30;;;;;;10428786;28;20237;-73
2021/07/12 20:23:50;;;;;;;2.67;2.47;;;27.20;29.50;;;;;;10431857;28;20612;-73
2021/07/12 20:28:53;;;;;;;3.67;3.37;;;27.00;29.70;;;;;;10433224;28;20233;-73
2021/07/12 20:33:57;;;;;;;3.90;3.60;;;26.90;29.70;;;;;;10431830;28;20225;-73
2021/07/12 20:39:01;;;;;;;4.43;4.03;;;26.70;29.60;;;;;;10428659;28;20241;-74
2021/07/12 20:44:05;;;;;;;5.43;4.97;;;26.60;30.00;;;;;;10419711;28;20236;-74
2021/07/12 20:49:09;;;;;;;7.60;6.90;;;26.50;30.00;;;;;;10422979;28;20236;-73
2021/07/12 20:54:13;;;;;;;3.90;3.60;;;26.30;30.00;;;;;;10425086;28;20225;-73
2021/07/12 20:59:17;;;;;;;4.33;2.83;;;26.20;31.10;;;;;;10426865;28;20229;-73
2021/07/12 21:04:20;;;;;;;3.03;2.50;;;26.10;30.80;;;;;;10435706;28;20890;-73
2021/07/12 21:09:25;;;;;;;2.80;2.60;;;26.10;31.10;;;;;;10439503;28;20708;-73
2021/07/12 21:14:28;;;;;;;2.70;2.50;;;26.00;31.60;;;;;;10437413;28;20594;-73
2021/07/12 21:19:31;;;;;;;4.63;3.43;;;26.00;30.90;;;;;;10439481;28;20592;-73
2021/07/12 21:24:36;;;;;;;4.27;3.87;;;25.80;30.90;;;;;;10439280;28;20228;-73
2021/07/12 21:29:39;;;;;;;4.27;3.70;;;25.60;31.80;;;;;;10439928;28;20232;-74
2021/07/12 21:34:43;;;;;;;3.33;3.03;;;25.40;31.70;;;;;;10435746;28;20224;-72
2021/07/12 21:39:47;;;;;;;2.77;2.57;;;25.20;32.20;;;;;;10437297;28;20237;-73
2021/07/12 21:44:51;;;;;;;2.90;2.70;;;25.10;33.10;;;;;;10437869;28;20228;-73
2021/07/12 21:49:54;;;;;;;2.70;2.50;;;25.00;32.70;;;;;;10452484;28;20228;-73
2021/07/12 21:54:59;;;;;;;3.03;2.60;;;24.90;33.00;;;;;;10452842;28;20705;-73
2021/07/12 22:00:02;;;;;;;3.60;2.93;;;24.90;34.40;;;;;;10448695;28;20229;-72
2021/07/12 22:05:07;;;;;;;2.77;2.57;;;24.90;33.80;;;;;;10447933;28;20250;-73
2021/07/12 22:10:15;;;;;;;3.83;2.77;;;24.90;34.40;;;;;;10449462;28;20252;-73
2021/07/12 22:15:21;;;;;;;3.27;2.97;;;24.80;35.10;;;;;;10454494;28;20725;-73
2021/07/12 22:20:28;;;;;;;2.90;2.70;;;24.60;34.40;;;;;;10449799;28;20716;-74
2021/07/12 22:25:32;;;;;;;2.80;2.50;;;24.40;35.40;;;;;;10454884;28;20233;-73
2021/07/12 22:30:38;;;;;;;2.00;1.90;;;24.40;35.40;;;;;;10454313;28;20240;-73
2021/07/12 22:35:41;;;;;;;2.33;2.20;;;24.40;35.30;;;;;;10455142;28;20270;-74
2021/07/12 22:40:46;;;;;;;4.40;2.70;;;24.40;35.00;;;;;;10457650;28;20251;-73
2021/07/12 22:45:50;;;;;;;4.40;2.40;;;24.30;35.60;;;;;;10447194;28;20228;-73
2021/07/12 22:50:54;;;;;;;3.00;2.70;;;24.10;34.90;;;;;;10457083;28;20782;-73
2021/07/12 22:55:59;;;;;;;2.70;2.50;;;23.90;35.40;;;;;;10444742;28;20228;-73
2021/07/12 23:01:04;;;;;;;3.63;2.70;;;23.80;36.70;;;;;;10454818;28;21196;-73
2021/07/12 23:06:07;;;;;;;2.73;2.27;;;23.80;36.20;;;;;;10453370;28;20233;-71
2021/07/12 23:11:12;;;;;;;2.80;2.40;;;23.80;36.00;;;;;;10444443;28;20248;-71
2021/07/12 23:16:17;;;;;;;2.40;2.20;;;23.90;36.30;;;;;;10452776;28;20708;-71
2021/07/12 23:21:20;;;;;;;2.73;2.40;;;23.90;36.10;;;;;;10444209;28;20262;-71
2021/07/12 23:26:25;;;;;;;2.60;2.40;;;23.90;36.00;;;;;;10443911;28;20230;-71
2021/07/12 23:31:28;;;;;;;2.90;2.53;;;23.90;36.60;;;;;;10443854;28;20491;-71
2021/07/12 23:36:32;;;;;;;2.87;2.50;;;23.80;36.00;;;;;;10444262;28;20645;-71
2021/07/12 23:41:36;;;;;;;3.13;2.50;;;23.80;36.30;;;;;;10447436;28;20608;-68
2021/07/12 23:46:39;;;;;;;2.40;2.30;;;23.80;37.30;;;;;;10448078;28;20732;-69
2021/07/12 23:51:43;;;;;;;2.90;2.70;;;23.70;36.70;;;;;;10445847;28;20741;-69
2021/07/12 23:56:48;;;;;;;2.57;1.97;;;23.70;36.30;;;;;;10438792;28;20270;-69
